sensor_id;sensor_type;location;lat;lon;timestamp;P1;durP1;ratioP1;P2;durP2;ratioP2
3131;SDS011;62090;52.330;9.104;2023-07-13T00:01:02;10.30;;;2.23;;
3131;SDS011;62090;52.330;9.104;2023-07-13T00:03:33;3.90;;;2.30;;
3131;SDS011;62090;52.330;9.104;2023-07-13T00:06:02;7.17;;;2.60;;
3131;SDS011;62090;52.330;9.104;2023-07-13T00:08:33;4.83;;;2.20;;
3131;SDS011;62090;52.330;9.104;2023-07-13T00:11:03;3.93;;;2.37;;
3131;SDS011;62090;52.330;9.104;2023-07-13T00:13:33;4.73;;;2.97;;
3131;SDS011;62090;52.330;9.104;2023-07-13T00:16:07;3.70;;;2.33;;
3131;SDS011;62090;52.330;9.104;2023-07-13T00:18:40;4.67;;;2.53;;
3131;SDS011;62090;52.330;9.104;2023-07-13T00:21:10;2.93;;;2.40;;
3131;SDS011;62090;52.330;9.104;2023-07-13T00:23:41;5.20;;;2.73;;
3131;SDS011;62090;52.330;9.104;2023-07-13T00:26:11;3.87;;;2.70;;
3131;SDS011;62090;52.330;9.104;2023-07-13T00:28:41;8.07;;;2.67;;
3131;SDS011;62090;52.330;9.104;2023-07-13T00:31:14;6.60;;;2.87;;
3131;SDS011;62090;52.330;9.104;2023-07-13T00:33:45;4.90;;;2.37;;
3131;SDS011;62090;52.330;9.104;2023-07-13T00:36:16;3.73;;;2.37;;
3131;SDS011;62090;52.330;9.104;2023-07-13T00:38:46;3.40;;;2.37;;
3131;SDS011;62090;52.330;9.104;2023-07-13T00:41:16;5.47;;;2.40;;
3131;SDS011;62090;52.330;9.104;2023-07-13T00:43:46;3.70;;;2.57;;
3131;SDS011;62090;52.330;9.104;2023-07-13T00:46:23;8.43;;;2.50;;
3131;SDS011;62090;52.330;9.104;2023-07-13T00:48:56;5.23;;;2.63;;
3131;SDS011;62090;52.330;9.104;2023-07-13T00:51:30;2.20;;;1.73;;
3131;SDS011;62090;52.330;9.104;2023-07-13T00:54:11;4.37;;;2.37;;
3131;SDS011;62090;52.330;9.104;2023-07-13T00:56:44;5.50;;;3.03;;
3131;SDS011;62090;52.330;9.104;2023-07-13T00:59:15;10.93;;;2.80;;
3131;SDS011;62090;52.330;9.104;2023-07-13T01:01:50;6.90;;;2.90;;
3131;SDS011;62090;52.330;9.104;2023-07-13T01:04:20;7.40;;;2.70;;
3131;SDS011;62090;52.330;9.104;2023-07-13T01:06:54;8.03;;;2.40;;
3131;SDS011;62090;52.330;9.104;2023-07-13T01:09:27;6.90;;;3.00;;
3131;SDS011;62090;52.330;9.104;2023-07-13T01:11:57;8.17;;;2.73;;
3131;SDS011;62090;52.330;9.104;2023-07-13T01:14:27;5.03;;;2.83;;
3131;SDS011;62090;52.330;9.104;2023-07-13T01:16:59;7.77;;;2.47;;
3131;SDS011;62090;52.330;9.104;2023-07-13T01:19:32;6.43;;;3.23;;
3131;SDS011;62090;52.330;9.104;2023-07-13T01:22:09;3.80;;;2.57;;
3131;SDS011;62090;52.330;9.104;2023-07-13T01:24:41;5.00;;;2.80;;
3131;SDS011;62090;52.330;9.104;2023-07-13T01:27:13;5.67;;;2.50;;
3131;SDS011;62090;52.330;9.104;2023-07-13T01:29:45;5.43;;;3.00;;
3131;SDS011;62090;52.330;9.104;2023-07-13T01:32:17;5.67;;;3.23;;
3131;SDS011;62090;52.330;9.104;2023-07-13T01:34:50;7.07;;;3.13;;
3131;SDS011;62090;52.330;9.104;2023-07-13T01:37:24;3.93;;;2.57;;
3131;SDS011;62090;52.330;9.104;2023-07-13T01:39:59;4.30;;;2.40;;
3131;SDS011;62090;52.330;9.104;2023-07-13T01:42:30;4.10;;;2.70;;
3131;SDS011;62090;52.330;9.104;2023-07-13T01:44:59;4.90;;;2.50;;
3131;SDS011;62090;52.330;9.104;2023-07-13T01:47:30;6.73;;;2.00;;
3131;SDS011;62090;52.330;9.104;2023-07-13T01:50:00;3.00;;;2.33;;
3131;SDS011;62090;52.330;9.104;2023-07-13T01:52:32;7.30;;;2.90;;
3131;SDS011;62090;52.330;9.104;2023-07-13T01:55:02;6.43;;;2.93;;
3131;SDS011;62090;52.330;9.104;2023-07-13T01:57:33;8.57;;;3.00;;
3131;SDS011;62090;52.330;9.104;2023-07-13T02:00:03;4.03;;;2.47;;
3131;SDS011;62090;52.330;9.104;2023-07-13T02:02:47;5.30;;;2.80;;
3131;SDS011;62090;52.330;9.104;2023-07-13T02:05:17;14.63;;;3.03;;
3131;SDS011;62090;52.330;9.104;2023-07-13T02:07:49;5.60;;;3.00;;
3131;SDS011;62090;52.330;9.104;2023-07-13T02:10:19;6.07;;;3.00;;
3131;SDS011;62090;52.330;9.104;2023-07-13T02:12:50;10.13;;;3.00;;
3131;SDS011;62090;52.330;9.104;2023-07-13T02:15:20;12.87;;;3.80;;
3131;SDS011;62090;52.330;9.104;2023-07-13T02:17:50;6.80;;;2.80;;
3131;SDS011;62090;52.330;9.104;2023-07-13T02:20:20;6.03;;;2.77;;
3131;SDS011;62090;52.330;9.104;2023-07-13T02:22:52;8.87;;;2.60;;
3131;SDS011;62090;52.330;9.104;2023-07-13T02:25:22;6.73;;;2.90;;
3131;SDS011;62090;52.330;9.104;2023-07-13T02:27:53;6.37;;;3.10;;
3131;SDS011;62090;52.330;9.104;2023-07-13T02:30:23;9.23;;;2.83;;
3131;SDS011;62090;52.330;9.104;2023-07-13T02:32:53;5.87;;;2.73;;
3131;SDS011;62090;52.330;9.104;2023-07-13T02:35:23;7.73;;;2.87;;
3131;SDS011;62090;52.330;9.104;2023-07-13T02:37:56;6.57;;;2.80;;
3131;SDS011;62090;52.330;9.104;2023-07-13T02:40:26;5.20;;;2.77;;
3131;SDS011;62090;52.330;9.104;2023-07-13T02:42:56;3.67;;;2.50;;
3131;SDS011;62090;52.330;9.104;2023-07-13T02:45:26;6.90;;;2.80;;
3131;SDS011;62090;52.330;9.104;2023-07-13T02:47:55;5.30;;;3.10;;
3131;SDS011;62090;52.330;9.104;2023-07-13T02:50:25;15.67;;;3.27;;
3131;SDS011;62090;52.330;9.104;2023-07-13T02:52:58;7.33;;;2.23;;
3131;SDS011;62090;52.330;9.104;2023-07-13T02:55:28;5.50;;;2.40;;
3131;SDS011;62090;52.330;9.104;2023-07-13T02:57:58;6.47;;;2.70;;
3131;SDS011;62090;52.330;9.104;2023-07-13T03:00:28;8.03;;;2.97;;
3131;SDS011;62090;52.330;9.104;2023-07-13T03:02:58;8.30;;;3.20;;
3131;SDS011;62090;52.330;9.104;2023-07-13T03:05:28;12.87;;;2.93;;
3131;SDS011;62090;52.330;9.104;2023-07-13T03:08:00;9.30;;;2.53;;
3131;SDS011;62090;52.330;9.104;2023-07-13T03:10:31;4.37;;;2.40;;
3131;SDS011;62090;52.330;9.104;2023-07-13T03:13:02;7.33;;;2.70;;
3131;SDS011;62090;52.330;9.104;2023-07-13T03:15:31;8.03;;;2.97;;
3131;SDS011;62090;52.330;9.104;2023-07-13T03:18:02;7.50;;;2.10;;
3131;SDS011;62090;52.330;9.104;2023-07-13T03:20:33;16.07;;;3.03;;
3131;SDS011;62090;52.330;9.104;2023-07-13T03:23:05;5.70;;;2.70;;
3131;SDS011;62090;52.330;9.104;2023-07-13T03:25:35;9.73;;;2.97;;
3131;SDS011;62090;52.330;9.104;2023-07-13T03:28:05;12.07;;;2.50;;
3131;SDS011;62090;52.330;9.104;2023-07-13T03:30:35;11.60;;;2.80;;
3131;SDS011;62090;52.330;9.104;2023-07-13T03:33:05;18.00;;;2.53;;
3131;SDS011;62090;52.330;9.104;2023-07-13T03:35:35;4.20;;;2.03;;
3131;SDS011;62090;52.330;9.104;2023-07-13T03:38:07;7.23;;;2.03;;
3131;SDS011;62090;52.330;9.104;2023-07-13T03:40:38;10.33;;;2.70;;
3131;SDS011;62090;52.330;9.104;2023-07-13T03:43:08;8.03;;;2.40;;
3131;SDS011;62090;52.330;9.104;2023-07-13T03:45:38;9.40;;;2.40;;
3131;SDS011;62090;52.330;9.104;2023-07-13T03:48:08;5.10;;;2.43;;
3131;SDS011;62090;52.330;9.104;2023-07-13T03:50:37;5.10;;;2.40;;
3131;SDS011;62090;52.330;9.104;2023-07-13T03:53:10;4.70;;;2.17;;
3131;SDS011;62090;52.330;9.104;2023-07-13T03:55:40;10.77;;;2.40;;
3131;SDS011;62090;52.330;9.104;2023-07-13T04:01:05;10.37;;;2.60;;
3131;SDS011;62090;52.330;9.104;2023-07-13T04:03:36;13.00;;;2.33;;
3131;SDS011;62090;52.330;9.104;2023-07-13T04:06:07;12.00;;;2.33;;
3131;SDS011;62090;52.330;9.104;2023-07-13T04:08:46;4.90;;;2.00;;
3131;SDS011;62090;52.330;9.104;2023-07-13T04:11:18;6.50;;;2.37;;
3131;SDS011;62090;52.330;9.104;2023-07-13T04:13:49;6.93;;;2.23;;
3131;SDS011;62090;52.330;9.104;2023-07-13T04:16:20;6.33;;;2.20;;
3131;SDS011;62090;52.330;9.104;2023-07-13T04:18:50;4.60;;;2.40;;
3131;SDS011;62090;52.330;9.104;2023-07-13T04:21:22;11.37;;;2.27;;
3131;SDS011;62090;52.330;9.104;2023-07-13T04:23:55;8.37;;;2.37;;
3131;SDS011;62090;52.330;9.104;2023-07-13T04:26:25;11.30;;;2.77;;
3131;SDS011;62090;52.330;9.104;2023-07-13T04:28:55;4.27;;;2.70;;
3131;SDS011;62090;52.330;9.104;2023-07-13T04:31:25;14.00;;;2.50;;
3131;SDS011;62090;52.330;9.104;2023-07-13T04:33:55;6.53;;;2.50;;
3131;SDS011;62090;52.330;9.104;2023-07-13T04:36:25;13.50;;;2.57;;
3131;SDS011;62090;52.330;9.104;2023-07-13T04:38:58;12.57;;;2.87;;
3131;SDS011;62090;52.330;9.104;2023-07-13T04:41:28;6.90;;;2.10;;
3131;SDS011;62090;52.330;9.104;2023-07-13T04:43:58;6.47;;;2.80;;
3131;SDS011;62090;52.330;9.104;2023-07-13T04:46:29;7.80;;;2.40;;
3131;SDS011;62090;52.330;9.104;2023-07-13T04:48:59;14.93;;;2.53;;
3131;SDS011;62090;52.330;9.104;2023-07-13T04:51:30;17.20;;;2.77;;
3131;SDS011;62090;52.330;9.104;2023-07-13T04:54:03;7.80;;;2.63;;
3131;SDS011;62090;52.330;9.104;2023-07-13T04:56:34;7.17;;;1.60;;
3131;SDS011;62090;52.330;9.104;2023-07-13T04:59:04;8.20;;;2.77;;
3131;SDS011;62090;52.330;9.104;2023-07-13T05:01:34;6.37;;;2.53;;
3131;SDS011;62090;52.330;9.104;2023-07-13T05:04:04;9.30;;;2.37;;
3131;SDS011;62090;52.330;9.104;2023-07-13T05:06:34;10.93;;;2.67;;
3131;SDS011;62090;52.330;9.104;2023-07-13T05:09:09;12.63;;;3.63;;
3131;SDS011;62090;52.330;9.104;2023-07-13T05:11:39;7.00;;;2.40;;
3131;SDS011;62090;52.330;9.104;2023-07-13T05:14:09;8.77;;;2.33;;
3131;SDS011;62090;52.330;9.104;2023-07-13T05:16:39;12.13;;;2.33;;
3131;SDS011;62090;52.330;9.104;2023-07-13T05:19:08;10.20;;;2.50;;
3131;SDS011;62090;52.330;9.104;2023-07-13T05:21:38;6.40;;;2.00;;
3131;SDS011;62090;52.330;9.104;2023-07-13T05:24:11;10.73;;;3.20;;
3131;SDS011;62090;52.330;9.104;2023-07-13T05:26:51;7.90;;;2.70;;
3131;SDS011;62090;52.330;9.104;2023-07-13T05:29:22;6.67;;;2.40;;
3131;SDS011;62090;52.330;9.104;2023-07-13T05:31:52;11.03;;;3.20;;
3131;SDS011;62090;52.330;9.104;2023-07-13T05:34:22;13.17;;;2.70;;
3131;SDS011;62090;52.330;9.104;2023-07-13T05:36:53;16.83;;;2.70;;
3131;SDS011;62090;52.330;9.104;2023-07-13T05:39:25;9.03;;;2.93;;
3131;SDS011;62090;52.330;9.104;2023-07-13T05:41:55;8.17;;;2.70;;
3131;SDS011;62090;52.330;9.104;2023-07-13T05:44:25;9.73;;;3.30;;
3131;SDS011;62090;52.330;9.104;2023-07-13T05:46:55;18.60;;;2.87;;
3131;SDS011;62090;52.330;9.104;2023-07-13T05:49:25;9.13;;;2.20;;
3131;SDS011;62090;52.330;9.104;2023-07-13T05:51:57;12.33;;;3.57;;
3131;SDS011;62090;52.330;9.104;2023-07-13T05:54:29;6.27;;;2.27;;
3131;SDS011;62090;52.330;9.104;2023-07-13T05:56:59;8.93;;;2.50;;
3131;SDS011;62090;52.330;9.104;2023-07-13T05:59:29;8.93;;;2.77;;
3131;SDS011;62090;52.330;9.104;2023-07-13T06:01:59;10.00;;;2.67;;
3131;SDS011;62090;52.330;9.104;2023-07-13T06:04:29;11.50;;;2.30;;
3131;SDS011;62090;52.330;9.104;2023-07-13T06:06:58;10.67;;;2.57;;
3131;SDS011;62090;52.330;9.104;2023-07-13T06:09:31;9.93;;;2.50;;
3131;SDS011;62090;52.330;9.104;2023-07-13T06:12:00;12.83;;;1.80;;
3131;SDS011;62090;52.330;9.104;2023-07-13T06:14:30;11.30;;;2.47;;
3131;SDS011;62090;52.330;9.104;2023-07-13T06:17:00;10.97;;;2.43;;
3131;SDS011;62090;52.330;9.104;2023-07-13T06:19:30;7.87;;;2.07;;
3131;SDS011;62090;52.330;9.104;2023-07-13T06:22:00;7.07;;;2.10;;
3131;SDS011;62090;52.330;9.104;2023-07-13T06:24:32;13.77;;;2.30;;
3131;SDS011;62090;52.330;9.104;2023-07-13T06:27:03;9.53;;;2.20;;
3131;SDS011;62090;52.330;9.104;2023-07-13T06:29:33;23.43;;;2.60;;
3131;SDS011;62090;52.330;9.104;2023-07-13T06:32:03;5.73;;;2.03;;
3131;SDS011;62090;52.330;9.104;2023-07-13T06:34:33;8.80;;;1.97;;
3131;SDS011;62090;52.330;9.104;2023-07-13T06:37:05;9.50;;;2.23;;
3131;SDS011;62090;52.330;9.104;2023-07-13T06:39:38;11.63;;;2.37;;
3131;SDS011;62090;52.330;9.104;2023-07-13T06:42:08;8.97;;;2.37;;
3131;SDS011;62090;52.330;9.104;2023-07-13T06:44:40;10.43;;;1.83;;
3131;SDS011;62090;52.330;9.104;2023-07-13T06:47:10;5.90;;;1.97;;
3131;SDS011;62090;52.330;9.104;2023-07-13T06:49:40;11.97;;;1.90;;
3131;SDS011;62090;52.330;9.104;2023-07-13T06:52:09;17.50;;;2.33;;
3131;SDS011;62090;52.330;9.104;2023-07-13T06:54:42;9.03;;;2.20;;
3131;SDS011;62090;52.330;9.104;2023-07-13T06:57:12;7.97;;;2.07;;
3131;SDS011;62090;52.330;9.104;2023-07-13T06:59:41;10.83;;;2.53;;
3131;SDS011;62090;52.330;9.104;2023-07-13T07:02:11;9.83;;;2.40;;
3131;SDS011;62090;52.330;9.104;2023-07-13T07:04:41;9.43;;;2.40;;
3131;SDS011;62090;52.330;9.104;2023-07-13T07:07:11;10.63;;;2.13;;
3131;SDS011;62090;52.330;9.104;2023-07-13T07:09:43;11.40;;;2.47;;
3131;SDS011;62090;52.330;9.104;2023-07-13T07:12:13;7.93;;;2.00;;
3131;SDS011;62090;52.330;9.104;2023-07-13T07:14:43;9.90;;;2.13;;
3131;SDS011;62090;52.330;9.104;2023-07-13T07:17:13;9.33;;;2.40;;
3131;SDS011;62090;52.330;9.104;2023-07-13T07:19:42;5.93;;;1.70;;
3131;SDS011;62090;52.330;9.104;2023-07-13T07:22:12;26.50;;;2.67;;
3131;SDS011;62090;52.330;9.104;2023-07-13T07:24:45;10.93;;;3.20;;
3131;SDS011;62090;52.330;9.104;2023-07-13T07:27:15;12.27;;;2.60;;
3131;SDS011;62090;52.330;9.104;2023-07-13T07:29:47;6.37;;;2.30;;
3131;SDS011;62090;52.330;9.104;2023-07-13T07:32:30;4.80;;;1.77;;
3131;SDS011;62090;52.330;9.104;2023-07-13T07:35:03;10.83;;;2.40;;
3131;SDS011;62090;52.330;9.104;2023-07-13T07:37:34;6.70;;;2.60;;
3131;SDS011;62090;52.330;9.104;2023-07-13T07:40:10;9.73;;;2.53;;
3131;SDS011;62090;52.330;9.104;2023-07-13T07:42:42;10.97;;;2.10;;
3131;SDS011;62090;52.330;9.104;2023-07-13T07:45:13;11.43;;;2.87;;
3131;SDS011;62090;52.330;9.104;2023-07-13T07:47:43;6.50;;;2.13;;
3131;SDS011;62090;52.330;9.104;2023-07-13T07:50:13;8.57;;;2.37;;
3131;SDS011;62090;52.330;9.104;2023-07-13T07:52:43;10.33;;;2.17;;
3131;SDS011;62090;52.330;9.104;2023-07-13T07:55:16;8.83;;;2.00;;
3131;SDS011;62090;52.330;9.104;2023-07-13T07:57:49;9.43;;;2.30;;
3131;SDS011;62090;52.330;9.104;2023-07-13T08:00:22;7.43;;;2.30;;
3131;SDS011;62090;52.330;9.104;2023-07-13T08:03:11;9.47;;;2.47;;
3131;SDS011;62090;52.330;9.104;2023-07-13T08:05:44;7.23;;;2.30;;
3131;SDS011;62090;52.330;9.104;2023-07-13T08:08:34;7.77;;;2.30;;
3131;SDS011;62090;52.330;9.104;2023-07-13T08:11:07;8.23;;;2.53;;
3131;SDS011;62090;52.330;9.104;2023-07-13T08:13:41;7.93;;;2.03;;
3131;SDS011;62090;52.330;9.104;2023-07-13T08:16:10;9.90;;;2.33;;
3131;SDS011;62090;52.330;9.104;2023-07-13T08:18:40;15.70;;;3.80;;
3131;SDS011;62090;52.330;9.104;2023-07-13T08:21:10;4.57;;;2.10;;
3131;SDS011;62090;52.330;9.104;2023-07-13T08:23:40;11.77;;;2.63;;
3131;SDS011;62090;52.330;9.104;2023-07-13T08:26:12;12.60;;;2.90;;
3131;SDS011;62090;52.330;9.104;2023-07-13T08:28:42;6.73;;;2.37;;
3131;SDS011;62090;52.330;9.104;2023-07-13T08:31:12;5.43;;;2.17;;
3131;SDS011;62090;52.330;9.104;2023-07-13T08:33:42;11.10;;;2.93;;
3131;SDS011;62090;52.330;9.104;2023-07-13T08:36:12;9.37;;;2.70;;
3131;SDS011;62090;52.330;9.104;2023-07-13T08:38:42;11.20;;;2.60;;
3131;SDS011;62090;52.330;9.104;2023-07-13T08:41:16;13.17;;;2.40;;
3131;SDS011;62090;52.330;9.104;2023-07-13T08:43:48;7.47;;;2.30;;
3131;SDS011;62090;52.330;9.104;2023-07-13T08:46:23;8.80;;;2.50;;
3131;SDS011;62090;52.330;9.104;2023-07-13T08:48:56;10.80;;;2.63;;
3131;SDS011;62090;52.330;9.104;2023-07-13T08:51:30;10.47;;;2.33;;
3131;SDS011;62090;52.330;9.104;2023-07-13T08:54:07;7.80;;;2.43;;
3131;SDS011;62090;52.330;9.104;2023-07-13T08:56:47;16.73;;;2.67;;
3131;SDS011;62090;52.330;9.104;2023-07-13T08:59:20;8.77;;;2.10;;
3131;SDS011;62090;52.330;9.104;2023-07-13T09:02:00;6.40;;;1.90;;
3131;SDS011;62090;52.330;9.104;2023-07-13T09:04:45;6.93;;;2.03;;
3131;SDS011;62090;52.330;9.104;2023-07-13T09:07:21;5.60;;;2.10;;
3131;SDS011;62090;52.330;9.104;2023-07-13T09:10:03;8.53;;;2.40;;
3131;SDS011;62090;52.330;9.104;2023-07-13T09:12:48;4.87;;;2.13;;
3131;SDS011;62090;52.330;9.104;2023-07-13T09:15:28;4.63;;;1.83;;
3131;SDS011;62090;52.330;9.104;2023-07-13T09:18:01;6.37;;;1.77;;
3131;SDS011;62090;52.330;9.104;2023-07-13T09:20:36;5.50;;;1.90;;
3131;SDS011;62090;52.330;9.104;2023-07-13T09:23:12;6.37;;;1.90;;
3131;SDS011;62090;52.330;9.104;2023-07-13T09:25:46;11.60;;;2.10;;
3131;SDS011;62090;52.330;9.104;2023-07-13T09:28:25;16.87;;;2.70;;
3131;SDS011;62090;52.330;9.104;2023-07-13T09:30:59;35.93;;;4.10;;
3131;SDS011;62090;52.330;9.104;2023-07-13T09:33:32;6.10;;;2.20;;
3131;SDS011;62090;52.330;9.104;2023-07-13T09:36:04;7.70;;;2.13;;
3131;SDS011;62090;52.330;9.104;2023-07-13T09:38:47;10.30;;;2.33;;
3131;SDS011;62090;52.330;9.104;2023-07-13T09:41:19;8.03;;;2.57;;
3131;SDS011;62090;52.330;9.104;2023-07-13T09:46:58;13.50;;;2.33;;
3131;SDS011;62090;52.330;9.104;2023-07-13T09:49:29;8.67;;;2.13;;
3131;SDS011;62090;52.330;9.104;2023-07-13T09:52:03;8.07;;;1.93;;
3131;SDS011;62090;52.330;9.104;2023-07-13T09:54:36;8.50;;;2.00;;
3131;SDS011;62090;52.330;9.104;2023-07-13T09:57:11;3.73;;;1.40;;
3131;SDS011;62090;52.330;9.104;2023-07-13T09:59:45;5.50;;;1.60;;
3131;SDS011;62090;52.330;9.104;2023-07-13T10:02:24;5.90;;;1.53;;
3131;SDS011;62090;52.330;9.104;2023-07-13T10:04:57;4.10;;;1.80;;
3131;SDS011;62090;52.330;9.104;2023-07-13T10:07:30;6.67;;;1.90;;
3131;SDS011;62090;52.330;9.104;2023-07-13T10:10:01;6.50;;;2.20;;
3131;SDS011;62090;52.330;9.104;2023-07-13T10:12:35;11.00;;;1.60;;
3131;SDS011;62090;52.330;9.104;2023-07-13T10:15:10;4.33;;;1.20;;
3131;SDS011;62090;52.330;9.104;2023-07-13T10:17:50;5.13;;;1.37;;
3131;SDS011;62090;52.330;9.104;2023-07-13T10:20:22;3.70;;;1.60;;
3131;SDS011;62090;52.330;9.104;2023-07-13T10:22:53;4.50;;;1.60;;
3131;SDS011;62090;52.330;9.104;2023-07-13T10:25:27;5.53;;;1.67;;
3131;SDS011;62090;52.330;9.104;2023-07-13T10:28:02;4.70;;;1.60;;
3131;SDS011;62090;52.330;9.104;2023-07-13T10:30:43;3.57;;;1.50;;
3131;SDS011;62090;52.330;9.104;2023-07-13T10:33:16;5.47;;;1.90;;
3131;SDS011;62090;52.330;9.104;2023-07-13T10:35:46;4.93;;;1.57;;
3131;SDS011;62090;52.330;9.104;2023-07-13T10:38:22;3.80;;;1.40;;
3131;SDS011;62090;52.330;9.104;2023-07-13T10:40:56;3.97;;;1.50;;
3131;SDS011;62090;52.330;9.104;2023-07-13T10:43:31;7.40;;;1.90;;
3131;SDS011;62090;52.330;9.104;2023-07-13T10:46:08;5.33;;;1.63;;
3131;SDS011;62090;52.330;9.104;2023-07-13T10:48:42;4.30;;;1.60;;
3131;SDS011;62090;52.330;9.104;2023-07-13T10:51:16;2.40;;;1.40;;
3131;SDS011;62090;52.330;9.104;2023-07-13T10:53:48;8.43;;;2.27;;
3131;SDS011;62090;52.330;9.104;2023-07-13T10:56:47;6.50;;;2.00;;
3131;SDS011;62090;52.330;9.104;2023-07-13T10:59:20;5.97;;;1.57;;
3131;SDS011;62090;52.330;9.104;2023-07-13T11:01:57;9.47;;;1.53;;
3131;SDS011;62090;52.330;9.104;2023-07-13T11:04:41;3.70;;;1.60;;
3131;SDS011;62090;52.330;9.104;2023-07-13T11:07:18;4.23;;;1.63;;
3131;SDS011;62090;52.330;9.104;2023-07-13T11:09:53;5.60;;;2.20;;
3131;SDS011;62090;52.330;9.104;2023-07-13T11:12:29;4.47;;;1.60;;
3131;SDS011;62090;52.330;9.104;2023-07-13T11:15:38;2.83;;;1.50;;
3131;SDS011;62090;52.330;9.104;2023-07-13T11:18:21;5.67;;;1.93;;
3131;SDS011;62090;52.330;9.104;2023-07-13T11:20:53;4.17;;;1.47;;
3131;SDS011;62090;52.330;9.104;2023-07-13T11:24:02;4.10;;;1.40;;
3131;SDS011;62090;52.330;9.104;2023-07-13T11:26:43;5.40;;;2.13;;
3131;SDS011;62090;52.330;9.104;2023-07-13T11:29:24;5.50;;;1.67;;
3131;SDS011;62090;52.330;9.104;2023-07-13T11:34:53;5.40;;;1.50;;
3131;SDS011;62090;52.330;9.104;2023-07-13T11:37:24;6.40;;;2.10;;
3131;SDS011;62090;52.330;9.104;2023-07-13T11:39:55;3.57;;;1.47;;
3131;SDS011;62090;52.330;9.104;2023-07-13T11:42:28;3.67;;;2.00;;
3131;SDS011;62090;52.330;9.104;2023-07-13T11:45:00;4.30;;;1.60;;
3131;SDS011;62090;52.330;9.104;2023-07-13T11:47:39;6.83;;;1.90;;
3131;SDS011;62090;52.330;9.104;2023-07-13T11:50:16;4.10;;;1.63;;
3131;SDS011;62090;52.330;9.104;2023-07-13T11:52:48;9.07;;;2.17;;
3131;SDS011;62090;52.330;9.104;2023-07-13T11:55:21;4.43;;;1.70;;
3131;SDS011;62090;52.330;9.104;2023-07-13T11:57:56;4.47;;;1.97;;
3131;SDS011;62090;52.330;9.104;2023-07-13T12:00:31;5.10;;;2.10;;
3131;SDS011;62090;52.330;9.104;2023-07-13T12:03:05;4.83;;;1.80;;
3131;SDS011;62090;52.330;9.104;2023-07-13T12:05:35;7.87;;;1.70;;
3131;SDS011;62090;52.330;9.104;2023-07-13T12:08:09;11.37;;;2.00;;
3131;SDS011;62090;52.330;9.104;2023-07-13T12:10:56;7.47;;;2.13;;
3131;SDS011;62090;52.330;9.104;2023-07-13T12:13:38;3.67;;;1.53;;
3131;SDS011;62090;52.330;9.104;2023-07-13T12:16:10;4.33;;;1.63;;
3131;SDS011;62090;52.330;9.104;2023-07-13T12:18:43;8.40;;;2.40;;
3131;SDS011;62090;52.330;9.104;2023-07-13T12:21:17;4.80;;;1.87;;
3131;SDS011;62090;52.330;9.104;2023-07-13T12:23:49;4.43;;;1.73;;
3131;SDS011;62090;52.330;9.104;2023-07-13T12:26:19;7.90;;;1.80;;
3131;SDS011;62090;52.330;9.104;2023-07-13T12:28:52;6.20;;;2.27;;
3131;SDS011;62090;52.330;9.104;2023-07-13T12:31:24;6.27;;;2.07;;
3131;SDS011;62090;52.330;9.104;2023-07-13T12:34:00;6.67;;;3.03;;
3131;SDS011;62090;52.330;9.104;2023-07-13T12:36:32;5.40;;;2.77;;
3131;SDS011;62090;52.330;9.104;2023-07-13T12:39:06;7.23;;;2.10;;
3131;SDS011;62090;52.330;9.104;2023-07-13T12:41:42;4.53;;;1.80;;
3131;SDS011;62090;52.330;9.104;2023-07-13T12:44:16;6.57;;;2.30;;
3131;SDS011;62090;52.330;9.104;2023-07-13T12:46:55;12.17;;;1.90;;
3131;SDS011;62090;52.330;9.104;2023-07-13T12:49:29;4.80;;;1.67;;
3131;SDS011;62090;52.330;9.104;2023-07-13T12:52:03;5.27;;;2.00;;
3131;SDS011;62090;52.330;9.104;2023-07-13T12:54:42;8.07;;;2.40;;
3131;SDS011;62090;52.330;9.104;2023-07-13T12:57:32;5.87;;;2.13;;
3131;SDS011;62090;52.330;9.104;2023-07-13T13:03:02;5.50;;;1.43;;
3131;SDS011;62090;52.330;9.104;2023-07-13T13:05:41;6.13;;;1.57;;
3131;SDS011;62090;52.330;9.104;2023-07-13T13:08:12;6.07;;;1.50;;
3131;SDS011;62090;52.330;9.104;2023-07-13T13:10:42;7.50;;;1.37;;
3131;SDS011;62090;52.330;9.104;2023-07-13T13:13:12;4.83;;;1.60;;
3131;SDS011;62090;52.330;9.104;2023-07-13T13:15:45;5.43;;;1.43;;
3131;SDS011;62090;52.330;9.104;2023-07-13T13:18:16;2.53;;;1.47;;
3131;SDS011;62090;52.330;9.104;2023-07-13T13:20:47;2.97;;;1.60;;
3131;SDS011;62090;52.330;9.104;2023-07-13T13:23:18;4.07;;;1.50;;
3131;SDS011;62090;52.330;9.104;2023-07-13T13:25:50;3.10;;;1.40;;
3131;SDS011;62090;52.330;9.104;2023-07-13T13:28:20;5.27;;;1.43;;
3131;SDS011;62090;52.330;9.104;2023-07-13T13:30:54;3.43;;;1.37;;
3131;SDS011;62090;52.330;9.104;2023-07-13T13:33:27;2.47;;;1.40;;
3131;SDS011;62090;52.330;9.104;2023-07-13T13:35:58;2.50;;;1.40;;
3131;SDS011;62090;52.330;9.104;2023-07-13T13:38:27;2.17;;;1.10;;
3131;SDS011;62090;52.330;9.104;2023-07-13T13:40:57;3.00;;;1.40;;
3131;SDS011;62090;52.330;9.104;2023-07-13T13:43:27;2.67;;;1.40;;
3131;SDS011;62090;52.330;9.104;2023-07-13T13:46:00;4.50;;;1.40;;
3131;SDS011;62090;52.330;9.104;2023-07-13T13:48:31;1.60;;;1.40;;
3131;SDS011;62090;52.330;9.104;2023-07-13T13:51:06;8.77;;;2.10;;
3131;SDS011;62090;52.330;9.104;2023-07-13T13:53:43;7.77;;;2.40;;
3131;SDS011;62090;52.330;9.104;2023-07-13T13:56:13;6.70;;;3.20;;
3131;SDS011;62090;52.330;9.104;2023-07-13T13:58:45;9.07;;;2.03;;
3131;SDS011;62090;52.330;9.104;2023-07-13T14:01:19;4.17;;;1.70;;
3131;SDS011;62090;52.330;9.104;2023-07-13T14:03:51;5.30;;;2.13;;
3131;SDS011;62090;52.330;9.104;2023-07-13T14:06:21;1.70;;;1.40;;
3131;SDS011;62090;52.330;9.104;2023-07-13T14:08:51;3.83;;;1.67;;
3131;SDS011;62090;52.330;9.104;2023-07-13T14:11:22;3.63;;;2.17;;
3131;SDS011;62090;52.330;9.104;2023-07-13T14:13:53;4.23;;;2.10;;
3131;SDS011;62090;52.330;9.104;2023-07-13T14:16:28;2.80;;;1.80;;
3131;SDS011;62090;52.330;9.104;2023-07-13T14:19:00;6.97;;;1.77;;
3131;SDS011;62090;52.330;9.104;2023-07-13T14:21:30;2.70;;;1.53;;
3131;SDS011;62090;52.330;9.104;2023-07-13T14:24:00;5.03;;;1.57;;
3131;SDS011;62090;52.330;9.104;2023-07-13T14:26:30;5.77;;;2.03;;
3131;SDS011;62090;52.330;9.104;2023-07-13T14:29:10;3.60;;;1.80;;
3131;SDS011;62090;52.330;9.104;2023-07-13T14:31:48;4.53;;;1.63;;
3131;SDS011;62090;52.330;9.104;2023-07-13T14:34:19;3.43;;;2.00;;
3131;SDS011;62090;52.330;9.104;2023-07-13T14:36:49;2.43;;;1.43;;
3131;SDS011;62090;52.330;9.104;2023-07-13T14:39:20;2.60;;;1.90;;
3131;SDS011;62090;52.330;9.104;2023-07-13T14:41:53;9.03;;;2.00;;
3131;SDS011;62090;52.330;9.104;2023-07-13T14:44:25;2.97;;;1.93;;
3131;SDS011;62090;52.330;9.104;2023-07-13T14:46:59;4.67;;;1.90;;
3131;SDS011;62090;52.330;9.104;2023-07-13T14:49:31;4.05;;;1.90;;
3131;SDS011;62090;52.330;9.104;2023-07-13T14:52:05;2.87;;;1.87;;
3131;SDS011;62090;52.330;9.104;2023-07-13T14:54:41;4.30;;;2.20;;
3131;SDS011;62090;52.330;9.104;2023-07-13T14:57:13;2.27;;;1.70;;
3131;SDS011;62090;52.330;9.104;2023-07-13T14:59:45;4.40;;;1.90;;
3131;SDS011;62090;52.330;9.104;2023-07-13T15:02:19;2.23;;;1.83;;
3131;SDS011;62090;52.330;9.104;2023-07-13T15:04:56;6.60;;;2.50;;
3131;SDS011;62090;52.330;9.104;2023-07-13T15:07:26;4.60;;;2.17;;
3131;SDS011;62090;52.330;9.104;2023-07-13T15:09:56;2.90;;;2.17;;
3131;SDS011;62090;52.330;9.104;2023-07-13T15:12:26;4.80;;;2.50;;
3131;SDS011;62090;52.330;9.104;2023-07-13T15:14:56;4.47;;;2.50;;
3131;SDS011;62090;52.330;9.104;2023-07-13T15:17:35;3.80;;;2.60;;
3131;SDS011;62090;52.330;9.104;2023-07-13T15:20:13;5.60;;;2.47;;
3131;SDS011;62090;52.330;9.104;2023-07-13T15:22:46;3.00;;;2.13;;
3131;SDS011;62090;52.330;9.104;2023-07-13T15:25:19;3.47;;;2.30;;
3131;SDS011;62090;52.330;9.104;2023-07-13T15:27:51;3.23;;;2.60;;
3131;SDS011;62090;52.330;9.104;2023-07-13T15:30:21;5.53;;;3.40;;
3131;SDS011;62090;52.330;9.104;2023-07-13T15:32:56;4.70;;;3.00;;
3131;SDS011;62090;52.330;9.104;2023-07-13T15:35:30;3.80;;;2.83;;
3131;SDS011;62090;52.330;9.104;2023-07-13T15:37:59;7.33;;;2.93;;
3131;SDS011;62090;52.330;9.104;2023-07-13T15:40:30;5.97;;;3.30;;
3131;SDS011;62090;52.330;9.104;2023-07-13T15:43:01;3.97;;;2.77;;